createdAt,value
2024-03-16T00:00:09.138Z,76.01
2024-03-16T00:02:37.004Z,77.16
2024-03-16T00:05:04.855Z,76.99
2024-03-16T00:07:32.664Z,77.23
2024-03-16T00:10:00.516Z,77.62
2024-03-16T00:12:29.558Z,75.47
2024-03-16T00:14:57.981Z,73.90
2024-03-16T00:17:25.717Z,73.79
2024-03-16T00:19:53.534Z,73.48
2024-03-16T00:22:22.547Z,73.52
2024-03-16T00:24:50.777Z,73.73
2024-03-16T00:27:19.264Z,74.10
2024-03-16T00:29:47.017Z,73.58
2024-03-16T00:32:14.809Z,73.38
2024-03-16T00:34:42.548Z,73.34
2024-03-16T00:37:10.397Z,73.36
2024-03-16T00:39:38.223Z,73.33
2024-03-16T00:42:06.075Z,73.28
2024-03-16T00:44:33.774Z,75.26
2024-03-16T00:47:01.541Z,74.24
2024-03-16T00:49:29.301Z,73.76
2024-03-16T00:51:57.349Z,73.79
2024-03-16T00:54:25.222Z,73.61
2024-03-16T00:56:53.868Z,73.53
2024-03-16T00:59:22.074Z,74.87
2024-03-16T01:01:49.895Z,74.33
2024-03-16T01:04:17.764Z,75.64
2024-03-16T01:06:45.770Z,74.98
2024-03-16T01:09:17.212Z,75.81
2024-03-16T01:11:45.193Z,74.19
2024-03-16T01:14:12.999Z,74.48
2024-03-16T01:16:41.014Z,75.33
2024-03-16T01:19:08.774Z,75.14
2024-03-16T01:21:36.657Z,76.27
2024-03-16T01:24:05.010Z,76.86
2024-03-16T01:26:32.822Z,76.42
2024-03-16T01:29:03.057Z,77.09
2024-03-16T01:31:30.819Z,75.40
2024-03-16T01:33:58.599Z,76.51
2024-03-16T01:36:26.750Z,75.34
2024-03-16T01:38:56.743Z,76.49
2024-03-16T01:41:24.840Z,76.93
2024-03-16T01:43:52.698Z,76.93
2024-03-16T01:46:20.669Z,74.42
2024-03-16T01:48:53.146Z,74.36
2024-03-16T01:51:21.159Z,73.67
2024-03-16T01:53:49.248Z,73.50
2024-03-16T01:56:17.511Z,72.97
2024-03-16T01:58:46.665Z,72.99
2024-03-16T02:01:14.643Z,73.13
2024-03-16T02:03:44.223Z,73.09
2024-03-16T02:06:12.082Z,73.48
2024-03-16T02:08:39.992Z,73.67
2024-03-16T02:11:07.813Z,73.52
2024-03-16T02:13:35.659Z,73.77
2024-03-16T02:16:04.161Z,74.08
2024-03-16T02:18:32.031Z,76.68
2024-03-16T02:20:59.827Z,75.58
2024-03-16T02:23:27.608Z,77.17
2024-03-16T02:25:55.399Z,77.70
2024-03-16T02:28:23.211Z,75.50
2024-03-16T02:30:51.061Z,74.34
2024-03-16T02:33:18.905Z,74.51
2024-03-16T02:35:46.712Z,75.49
2024-03-16T02:38:14.701Z,75.00
2024-03-16T02:40:43.556Z,74.94
2024-03-16T02:43:11.673Z,74.05
2024-03-16T02:45:39.554Z,73.84
2024-03-16T02:48:06.797Z,73.26
2024-03-16T02:50:34.629Z,73.61
2024-03-16T02:53:02.358Z,73.31
2024-03-16T02:55:29.586Z,75.24
2024-03-16T02:57:57.326Z,74.50
2024-03-16T03:00:25.530Z,74.63
2024-03-16T03:02:53.447Z,74.83
2024-03-16T03:05:23.606Z,74.48
2024-03-16T03:07:51.423Z,74.23
2024-03-16T03:10:19.285Z,74.36
2024-03-16T03:12:47.132Z,74.22
2024-03-16T03:15:15.039Z,75.08
2024-03-16T03:17:43.490Z,75.62
2024-03-16T03:20:12.441Z,76.60
2024-03-16T03:22:40.334Z,75.29
2024-03-16T03:25:08.535Z,74.83
2024-03-16T03:27:36.656Z,73.94
2024-03-16T03:30:04.874Z,74.58
2024-03-16T03:32:33.591Z,73.36
2024-03-16T03:35:01.497Z,74.14
2024-03-16T03:37:29.306Z,72.84
2024-03-16T03:39:57.421Z,72.36
2024-03-16T03:42:26.580Z,72.85
2024-03-16T03:45:12.250Z,71.98
2024-03-16T03:48:01.448Z,71.97
2024-03-16T03:50:30.212Z,73.12
2024-03-16T03:53:00.604Z,72.44
2024-03-16T03:55:28.620Z,71.81
2024-03-16T03:57:56.618Z,73.66
2024-03-16T04:00:24.735Z,72.56
2024-03-16T04:02:52.578Z,72.47
2024-03-16T04:05:20.373Z,73.57
2024-03-16T04:07:48.099Z,72.59
2024-03-16T04:10:16.114Z,72.58
2024-03-16T04:12:44.034Z,72.14
2024-03-16T04:15:11.940Z,71.63
2024-03-16T04:17:40.098Z,72.18
2024-03-16T04:20:13.705Z,74.24
2024-03-16T04:22:41.522Z,73.03
2024-03-16T04:25:10.537Z,72.61
2024-03-16T04:27:38.557Z,72.88
2024-03-16T04:30:07.514Z,75.11
2024-03-16T04:32:36.203Z,76.48
2024-03-16T04:35:04.019Z,75.57
2024-03-16T04:37:31.826Z,73.12
2024-03-16T04:39:59.782Z,72.67
2024-03-16T04:42:27.599Z,72.28
2024-03-16T04:44:55.372Z,74.40
2024-03-16T04:47:23.151Z,74.29
2024-03-16T04:49:50.964Z,75.02
2024-03-16T04:52:18.759Z,74.15
2024-03-16T04:54:47.267Z,72.95
2024-03-16T04:57:15.044Z,72.68
2024-03-16T04:59:42.768Z,72.43
2024-03-16T05:02:10.502Z,72.92
2024-03-16T05:04:38.695Z,73.12
2024-03-16T05:07:06.775Z,73.24
2024-03-16T05:09:34.564Z,72.71
2024-03-16T05:12:02.385Z,75.63
2024-03-16T05:14:30.105Z,76.05
2024-03-16T05:16:58.177Z,75.14
2024-03-16T05:19:26.668Z,75.43
2024-03-16T05:21:54.571Z,75.94
2024-03-16T05:24:22.618Z,76.32
2024-03-16T05:26:50.362Z,75.98
2024-03-16T05:29:18.172Z,75.73
2024-03-16T05:31:46.482Z,76.71
2024-03-16T05:34:14.335Z,77.38
2024-03-16T05:36:42.182Z,76.88
2024-03-16T05:39:10.413Z,77.34
2024-03-16T05:41:38.434Z,77.02
2024-03-16T05:44:06.278Z,77.88
2024-03-16T05:46:34.165Z,78.33
2024-03-16T05:49:01.985Z,78.96
2024-03-16T05:51:30.123Z,78.76
2024-03-16T05:53:58.322Z,78.15
2024-03-16T05:56:26.170Z,77.00
2024-03-16T05:58:54.030Z,77.39
2024-03-16T06:01:22.867Z,78.13
2024-03-16T06:03:52.672Z,77.88
2024-03-16T06:06:20.585Z,78.62
2024-03-16T06:08:48.641Z,77.56
2024-03-16T06:11:16.611Z,79.15
2024-03-16T06:13:45.524Z,79.00
2024-03-16T06:16:13.586Z,77.68
2024-03-16T06:18:48.094Z,77.70
2024-03-16T06:21:15.961Z,78.23
2024-03-16T06:23:43.955Z,78.06
2024-03-16T06:26:18.148Z,78.42
2024-03-16T06:28:48.511Z,78.76
2024-03-16T06:31:19.705Z,77.11
2024-03-16T06:33:49.537Z,78.46
2024-03-16T06:36:17.396Z,78.00
2024-03-16T06:38:45.166Z,78.74
2024-03-16T06:41:12.972Z,77.76
2024-03-16T06:43:40.782Z,78.59
2024-03-16T06:46:10.111Z,77.71
2024-03-16T06:48:38.057Z,78.26
2024-03-16T06:51:06.102Z,78.16
2024-03-16T06:53:33.903Z,77.07
2024-03-16T06:56:05.218Z,78.55
2024-03-16T06:58:33.144Z,76.37
2024-03-16T07:01:01.660Z,76.44
2024-03-16T07:03:29.979Z,76.81
2024-03-16T07:05:57.811Z,76.77
2024-03-16T07:08:25.699Z,77.01
2024-03-16T07:10:53.708Z,77.24
2024-03-16T07:13:21.630Z,78.00
2024-03-16T07:15:51.313Z,78.09
2024-03-16T07:18:19.473Z,77.81
2024-03-16T07:20:47.765Z,77.56
2024-03-16T07:23:16.160Z,77.77
2024-03-16T07:25:44.089Z,78.31
2024-03-16T07:28:12.896Z,76.96
2024-03-16T07:30:42.786Z,77.17
2024-03-16T07:33:12.089Z,76.65
2024-03-16T07:35:41.147Z,76.48
2024-03-16T07:38:09.416Z,75.80
2024-03-16T07:40:37.930Z,76.03
2024-03-16T07:43:07.374Z,76.42
2024-03-16T07:48:14.258Z,74.71
2024-03-16T07:50:42.222Z,73.98
2024-03-16T07:53:11.411Z,75.21
2024-03-16T07:55:39.898Z,75.19
2024-03-16T07:58:09.122Z,75.91
2024-03-16T08:00:37.403Z,75.16
2024-03-16T08:03:05.714Z,75.39
2024-03-16T08:05:36.676Z,75.79
2024-03-16T08:08:04.694Z,75.19
2024-03-16T08:10:33.445Z,74.55
2024-03-16T08:13:01.332Z,73.63
2024-03-16T08:15:29.390Z,74.10
2024-03-16T08:17:58.883Z,73.90
2024-03-16T08:20:27.149Z,75.25
2024-03-16T08:22:55.941Z,75.62
2024-03-16T08:25:24.007Z,74.74
2024-03-16T08:27:52.019Z,75.46
2024-03-16T08:30:20.014Z,75.34
2024-03-16T08:32:48.099Z,76.53
2024-03-16T08:35:16.147Z,76.37
2024-03-16T08:37:44.562Z,76.36
2024-03-16T08:40:14.434Z,76.80
2024-03-16T08:42:42.774Z,76.90
2024-03-16T08:45:11.749Z,77.41
2024-03-16T08:47:42.596Z,78.00
2024-03-16T08:50:11.037Z,77.23
2024-03-16T08:52:39.402Z,77.18
2024-03-16T08:55:07.811Z,77.50
2024-03-16T08:57:35.854Z,77.99
2024-03-16T09:00:05.657Z,78.31
2024-03-16T09:02:33.827Z,78.09
2024-03-16T09:05:02.436Z,78.10
2024-03-16T09:07:30.511Z,78.15
2024-03-16T09:09:59.203Z,77.39
2024-03-16T09:12:27.494Z,78.19
2024-03-16T09:14:56.979Z,78.37
2024-03-16T09:17:25.948Z,77.97
2024-03-16T09:19:53.928Z,76.89
2024-03-16T09:22:21.932Z,76.66
2024-03-16T09:24:49.928Z,77.94
2024-03-16T09:27:17.892Z,77.77
2024-03-16T09:29:45.950Z,76.59
2024-03-16T09:32:15.047Z,77.60
2024-03-16T09:34:43.076Z,77.00
2024-03-16T09:37:11.032Z,76.08
2024-03-16T09:39:39.964Z,76.45
2024-03-16T09:42:09.128Z,76.93
